KVCT/VCT METAR and TAF weather

Enter ICAO airport designator
Station Type Date Time Source
KVCT METAR 2022/01/27 22:51 UTC NOAA

KVCT 272251Z 05005KT 10SM OVC047 18/08 A3018 RMK AO2 SLP219 T01780078


Station Type Date Time Source
KVCT Decoded METAR 2022/01/27 22:51 UTC NOAA

VICTORIA REGIONAL AIRPORT, TX, United States (KVCT) 28-52N 96-56W 31M
Jan 27, 2022 - 05:51 PM EST / 2022.01.27 2251 UTC
Wind: from the NE (050 degrees) at 6 MPH (5 KT):0
Visibility: 10 mile(s):0
Sky conditions: overcast
Temperature: 64.0 F (17.8 C)
Dew Point: 46.0 F (7.8 C)
Relative Humidity: 51%
Pressure (altimeter): 30.18 in. Hg (1022 hPa)
ob: KVCT 272251Z 05005KT 10SM OVC047 18/08 A3018 RMK AO2 SLP219 T01780078
cycle: 23

Station Type Date Time Source
KVCT TAF 2022/01/27 18:40 UTC NOAA

TAF KVCT 271738Z 2718/2818 04005KT P6SM OVC050
FM272100 06007KT P6SM FEW035 OVC050
FM280700 02009KT P6SM -RA FEW035 OVC045
FM281200 35014G20KT P6SM OVC050

Example: see airport list